Time;durP1;ratioP1;P1;durP2;ratioP2;P2;SDS_P1;SDS_P2;PMS_P1;PMS_P2;Temp;Humidity;BMP_temperature;BMP_pressure;BME280_temperature;BME280_humidity;BME280_pressure;Samples;Min_cycle;Max_cycle;Signal;HPM_P1;HPM_P2
2022/12/13 00:00:13;;;;;;;30.47;16.30;;;-3.30;99.90;;;;;;5039737;28;20196;-85
2022/12/13 00:02:43;;;;;;;29.65;15.63;;;-3.30;99.90;;;;;;5058004;28;20184;-86
2022/12/13 00:05:09;;;;;;;24.23;15.98;;;-3.30;99.90;;;;;;5037941;28;20278;-85
2022/12/13 00:07:36;;;;;;;30.80;16.38;;;-3.30;99.90;;;;;;5042830;28;20239;-85
2022/12/13 00:10:03;;;;;;;25.95;14.25;;;-3.30;99.90;;;;;;5043189;28;20219;-85
2022/12/13 00:12:29;;;;;;;28.98;15.23;;;-3.30;99.90;;;;;;5045057;28;20182;-85
2022/12/13 00:14:55;;;;;;;29.43;17.00;;;-3.40;99.90;;;;;;5040704;28;20267;-85
2022/12/13 00:17:21;;;;;;;29.27;16.20;;;-3.40;99.90;;;;;;5035862;28;20456;-84
2022/12/13 00:19:47;;;;;;;28.07;17.23;;;-3.40;99.90;;;;;;5047437;28;20186;-85
2022/12/13 00:22:13;;;;;;;24.73;15.98;;;-3.40;99.90;;;;;;5050141;28;20528;-85
2022/12/13 00:24:39;;;;;;;29.27;16.55;;;-3.40;99.90;;;;;;5039670;28;20181;-84
2022/12/13 00:27:05;;;;;;;32.73;15.70;;;-3.50;99.90;;;;;;5049136;28;20195;-85
2022/12/13 00:29:31;;;;;;;32.67;16.13;;;-3.50;99.90;;;;;;5055633;28;20190;-88
2022/12/13 00:31:56;;;;;;;33.50;15.93;;;-3.50;99.90;;;;;;5059139;28;20479;-88
2022/12/13 00:34:23;;;;;;;27.40;16.07;;;-3.60;99.90;;;;;;5041708;28;20193;-88
2022/12/13 00:36:48;;;;;;;26.85;15.60;;;-3.60;99.90;;;;;;5057934;28;20188;-89
2022/12/13 00:39:15;;;;;;;31.30;15.70;;;-3.60;99.90;;;;;;5058327;28;20182;-89
2022/12/13 00:41:42;;;;;;;24.75;15.63;;;-3.70;99.90;;;;;;5059640;28;20177;-87
2022/12/13 00:44:13;;;;;;;25.33;15.55;;;-3.60;99.90;;;;;;5058040;28;20180;-88
2022/12/13 00:46:39;;;;;;;28.50;16.80;;;-3.60;99.90;;;;;;5059368;28;20161;-89
2022/12/13 00:49:05;;;;;;;31.05;17.00;;;-3.70;99.90;;;;;;5059276;28;20220;-88
2022/12/13 00:51:33;;;;;;;29.77;15.63;;;-3.70;99.90;;;;;;5059136;28;20196;-89
2022/12/13 00:54:00;;;;;;;29.27;15.23;;;-3.70;99.90;;;;;;5057659;28;20274;-88
2022/12/13 00:56:28;;;;;;;28.55;15.90;;;-3.80;99.90;;;;;;5058649;28;20215;-87
2022/12/13 00:58:54;;;;;;;34.25;16.83;;;-3.80;99.90;;;;;;5058502;28;20175;-88
2022/12/13 01:01:25;;;;;;;31.17;16.60;;;-3.90;99.90;;;;;;5060499;28;20296;-88
2022/12/13 01:03:56;;;;;;;30.85;17.00;;;-3.90;99.90;;;;;;5060896;28;20244;-88
2022/12/13 01:06:27;;;;;;;32.47;17.40;;;-3.90;99.90;;;;;;5060162;28;20630;-88
2022/12/13 01:08:52;;;;;;;35.55;16.30;;;-3.90;99.90;;;;;;5057086;28;20270;-89
2022/12/13 01:11:18;;;;;;;24.80;15.73;;;-4.00;99.90;;;;;;5058563;28;20206;-89
2022/12/13 01:13:44;;;;;;;25.77;13.53;;;-4.00;99.90;;;;;;5057220;28;20243;-88
2022/12/13 01:16:11;;;;;;;34.50;16.30;;;-4.00;99.90;;;;;;5059328;28;20188;-89
2022/12/13 01:18:38;;;;;;;28.65;15.73;;;-4.00;99.90;;;;;;5059326;28;20487;-89
2022/12/13 01:21:15;;;;;;;24.30;15.35;;;-4.10;99.90;;;;;;5058622;28;20260;-88
2022/12/13 01:23:41;;;;;;;28.23;15.65;;;-4.10;99.90;;;;;;5057218;28;20567;-88
2022/12/13 01:26:12;;;;;;;29.23;16.40;;;-4.20;99.90;;;;;;5058821;28;20175;-88
2022/12/13 01:28:38;;;;;;;26.30;15.95;;;-4.20;99.90;;;;;;5057593;28;20309;-88
2022/12/13 01:31:07;;;;;;;28.67;15.10;;;-4.20;99.90;;;;;;5058138;28;20621;-88
2022/12/13 01:33:33;;;;;;;31.05;16.98;;;-4.20;99.90;;;;;;5058741;28;20879;-89
2022/12/13 01:36:04;;;;;;;29.40;16.02;;;-4.20;99.90;;;;;;5058925;28;20180;-88
2022/12/13 01:38:31;;;;;;;28.77;15.23;;;-4.20;99.90;;;;;;5065039;28;20195;-88
2022/12/13 01:40:57;;;;;;;30.77;16.85;;;-4.20;99.90;;;;;;5066683;28;20174;-88
2022/12/13 01:43:51;;;;;;;28.57;15.97;;;-4.30;99.90;;;;;;5060499;28;20178;-88
2022/12/13 01:46:17;;;;;;;25.20;16.13;;;-4.30;99.90;;;;;;5059299;28;20237;-88
2022/12/13 01:48:48;;;;;;;31.42;17.10;;;-4.30;99.90;;;;;;5057348;28;20215;-85
2022/12/13 01:51:18;;;;;;;29.58;16.67;;;-4.30;99.90;;;;;;5056795;28;20208;-88
2022/12/13 01:53:45;;;;;;;33.83;17.20;;;-4.30;99.90;;;;;;5058595;28;20172;-84
2022/12/13 01:56:22;;;;;;;39.55;16.75;;;-4.30;99.90;;;;;;5059605;28;20183;-88
2022/12/13 01:58:51;;;;;;;30.48;17.63;;;-4.30;99.90;;;;;;5058446;28;20261;-88
2022/12/13 02:01:17;;;;;;;32.30;17.98;;;-4.30;99.90;;;;;;5063294;28;20176;-88
2022/12/13 02:03:44;;;;;;;36.22;17.95;;;-4.30;99.90;;;;;;5059291;28;20235;-87
2022/12/13 02:06:21;;;;;;;34.17;18.55;;;-4.40;99.90;;;;;;5057350;28;20181;-88
2022/12/13 02:08:47;;;;;;;39.70;18.25;;;-4.40;99.90;;;;;;5056365;28;20238;-87
2022/12/13 02:11:14;;;;;;;35.85;18.05;;;-4.40;99.90;;;;;;5058624;28;20182;-89
2022/12/13 02:13:40;;;;;;;27.42;16.35;;;-4.40;99.90;;;;;;5040610;28;20187;-88
2022/12/13 02:16:28;;;;;;;36.20;18.20;;;-4.40;99.90;;;;;;5040000;28;20630;-87
2022/12/13 02:19:19;;;;;;;34.33;18.23;;;-4.50;99.90;;;;;;5057126;28;20244;-88
2022/12/13 02:22:23;;;;;;;31.98;17.40;;;-4.50;99.90;;;;;;5056746;28;20182;-85
2022/12/13 02:24:49;;;;;;;33.60;17.65;;;-4.50;99.90;;;;;;5056572;28;20598;-88
2022/12/13 02:27:27;;;;;;;37.03;20.00;;;-4.50;99.90;;;;;;5058135;28;20181;-88
2022/12/13 02:30:11;;;;;;;39.25;18.45;;;-4.50;99.90;;;;;;5058670;28;20172;-88
2022/12/13 02:33:07;;;;;;;41.55;20.52;;;-4.50;99.90;;;;;;5058212;28;20201;-88
2022/12/13 02:35:44;;;;;;;34.42;18.85;;;-4.50;99.90;;;;;;5059089;28;20194;-88
2022/12/13 02:38:18;;;;;;;28.27;18.10;;;-4.50;99.90;;;;;;5059459;28;20210;-87
2022/12/13 02:40:49;;;;;;;39.90;19.52;;;-4.50;99.90;;;;;;5057678;28;20161;-88
2022/12/13 02:43:34;;;;;;;32.63;17.88;;;-4.50;99.90;;;;;;5057146;28;20246;-88
2022/12/13 02:46:02;;;;;;;32.15;15.85;;;-4.60;99.90;;;;;;5056812;28;20158;-87
2022/12/13 02:48:32;;;;;;;35.85;18.38;;;-4.60;99.90;;;;;;5057251;28;20207;-88
2022/12/13 02:51:00;;;;;;;30.95;16.85;;;-4.60;99.90;;;;;;5055669;28;20183;-88
2022/12/13 02:53:26;;;;;;;32.22;16.70;;;-4.60;99.90;;;;;;5055513;28;20203;-88
2022/12/13 02:55:51;;;;;;;33.42;17.55;;;-4.60;99.90;;;;;;5056953;28;20222;-87
2022/12/13 02:58:26;;;;;;;32.90;17.67;;;-4.60;99.90;;;;;;5056000;28;20185;-88
2022/12/13 03:01:09;;;;;;;34.33;18.42;;;-4.50;99.90;;;;;;5056943;28;20170;-89
2022/12/13 03:03:34;;;;;;;33.08;17.50;;;-4.60;99.90;;;;;;5057987;28;20169;-89
2022/12/13 03:06:38;;;;;;;32.73;17.00;;;-4.60;99.90;;;;;;5058421;28;20182;-89
2022/12/13 03:09:35;;;;;;;46.67;17.50;;;-4.50;99.90;;;;;;5057188;28;20229;-88
2022/12/13 03:15:20;;;;;;;37.13;17.40;;;-4.50;99.90;;;;;;5057923;28;20168;-89
2022/12/13 03:17:54;;;;;;;28.65;17.45;;;-4.50;99.90;;;;;;5057918;28;20268;-90
2022/12/13 03:20:24;;;;;;;41.28;19.95;;;-4.60;99.90;;;;;;5056611;28;20286;-91
2022/12/13 03:22:54;;;;;;;35.85;17.83;;;-4.50;99.90;;;;;;5055223;28;20197;-89
2022/12/13 03:25:23;;;;;;;35.35;18.60;;;-4.60;99.90;;;;;;5055295;28;20546;-90
2022/12/13 03:27:48;;;;;;;32.00;17.92;;;-4.50;99.90;;;;;;5056720;28;20210;-88
2022/12/13 03:30:14;;;;;;;31.90;18.90;;;-4.60;99.90;;;;;;5057098;28;20581;-90
2022/12/13 03:32:40;;;;;;;34.63;18.40;;;-4.60;99.90;;;;;;5055353;28;20178;-90
2022/12/13 03:35:06;;;;;;;35.37;18.80;;;-4.70;99.90;;;;;;5056829;28;20214;-90
2022/12/13 03:37:32;;;;;;;36.53;18.98;;;-4.70;99.90;;;;;;5056706;28;20198;-90
2022/12/13 03:39:58;;;;;;;35.00;18.35;;;-4.70;99.90;;;;;;5058238;28;20186;-91
2022/12/13 03:42:23;;;;;;;36.33;20.37;;;-4.80;99.90;;;;;;5057569;28;20181;-90
2022/12/13 03:44:49;;;;;;;39.07;19.13;;;-4.80;99.90;;;;;;5040739;28;20489;-89
2022/12/13 03:47:16;;;;;;;41.60;20.53;;;-4.80;99.90;;;;;;5055835;28;20618;-89
2022/12/13 03:49:41;;;;;;;31.60;17.30;;;-4.80;99.90;;;;;;5040186;28;20182;-90
2022/12/13 03:52:07;;;;;;;37.60;20.70;;;-4.90;99.90;;;;;;5042082;28;20190;-89
2022/12/13 03:54:33;;;;;;;38.83;19.70;;;-4.90;99.90;;;;;;5040481;28;20182;-89
2022/12/13 03:56:58;;;;;;;33.43;17.73;;;-4.90;99.90;;;;;;5057017;28;20187;-89
2022/12/13 03:59:24;;;;;;;38.23;18.43;;;-4.90;99.90;;;;;;5041158;28;20545;-90
2022/12/13 04:01:50;;;;;;;29.03;17.40;;;-4.90;99.90;;;;;;5057883;28;20189;-90
2022/12/13 04:04:15;;;;;;;41.70;19.90;;;-4.90;99.90;;;;;;5056953;28;20210;-90
2022/12/13 04:06:41;;;;;;;37.47;19.83;;;-4.90;99.90;;;;;;5040762;28;20194;-87
2022/12/13 04:09:06;;;;;;;40.40;19.10;;;-4.90;99.90;;;;;;5057825;28;20210;-90
2022/12/13 04:14:16;;;;;;;37.15;21.30;;;-4.80;99.90;;;;;;5060881;28;20558;-90
2022/12/13 04:16:41;;;;;;;47.00;21.70;;;-4.80;99.90;;;;;;5057898;28;20182;-90
2022/12/13 04:19:07;;;;;;;34.23;19.30;;;-4.80;99.90;;;;;;5057969;28;20208;-89
2022/12/13 04:21:32;;;;;;;35.53;21.87;;;-4.80;99.90;;;;;;5056771;28;20308;-90
2022/12/13 04:23:58;;;;;;;38.30;20.60;;;-4.80;99.90;;;;;;5056088;28;20197;-88
2022/12/13 04:26:24;;;;;;;35.70;19.07;;;-4.90;99.90;;;;;;5055378;28;20213;-89
2022/12/13 04:28:49;;;;;;;38.53;20.90;;;-4.80;99.90;;;;;;5056212;28;20209;-90
2022/12/13 04:31:15;;;;;;;34.07;18.90;;;-4.90;99.90;;;;;;5038181;28;20229;-89
2022/12/13 04:33:40;;;;;;;36.30;19.77;;;-4.90;99.90;;;;;;5054842;28;20665;-89
2022/12/13 04:36:06;;;;;;;41.53;20.37;;;-4.90;99.90;;;;;;5059204;28;20181;-90
2022/12/13 04:38:32;;;;;;;36.90;20.58;;;-4.90;99.90;;;;;;5056471;28;20216;-89
2022/12/13 04:41:13;;;;;;;39.33;20.80;;;-4.90;99.90;;;;;;5039500;28;20190;-89
2022/12/13 04:43:40;;;;;;;38.25;18.90;;;-4.90;99.90;;;;;;5057194;28;20187;-89
2022/12/13 04:46:07;;;;;;;35.17;18.10;;;-4.80;99.90;;;;;;5056905;28;20237;-89
2022/12/13 04:48:33;;;;;;;41.20;18.08;;;-4.80;99.90;;;;;;5056239;28;20206;-89
2022/12/13 04:50:59;;;;;;;42.58;20.45;;;-4.70;99.90;;;;;;5054877;28;20181;-90
2022/12/13 04:53:25;;;;;;;42.50;19.50;;;-4.60;99.90;;;;;;5055875;28;20180;-89
2022/12/13 04:55:51;;;;;;;47.53;22.10;;;-4.50;99.90;;;;;;5039672;28;20183;-88
2022/12/13 04:58:20;;;;;;;57.92;25.98;;;-4.40;99.90;;;;;;5043067;28;20187;-89
2022/12/13 05:00:45;;;;;;;47.00;23.52;;;-4.30;99.90;;;;;;5040731;28;20254;-86
2022/12/13 05:03:11;;;;;;;50.90;24.00;;;-4.20;99.90;;;;;;5057505;28;20214;-86
2022/12/13 05:05:40;;;;;;;45.93;22.60;;;-4.10;99.90;;;;;;5055944;28;20638;-86
2022/12/13 05:08:07;;;;;;;46.08;23.83;;;-4.10;99.90;;;;;;5057548;28;20631;-86
2022/12/13 05:10:33;;;;;;;46.35;22.38;;;-4.00;99.90;;;;;;5058001;28;20274;-86
2022/12/13 05:13:00;;;;;;;51.25;25.27;;;-3.90;99.90;;;;;;5057005;28;20196;-85
2022/12/13 05:15:26;;;;;;;41.63;23.25;;;-3.90;99.90;;;;;;5056858;28;20177;-86
2022/12/13 05:17:52;;;;;;;38.25;21.08;;;-3.90;99.90;;;;;;5061405;28;20176;-87
2022/12/13 05:20:17;;;;;;;45.33;22.43;;;-3.90;99.90;;;;;;5059768;28;20188;-87
2022/12/13 05:22:43;;;;;;;55.00;25.30;;;-3.90;99.90;;;;;;5059617;28;20180;-87
2022/12/13 05:25:09;;;;;;;51.75;24.67;;;-3.80;99.90;;;;;;5061951;28;20418;-87
2022/12/13 05:27:34;;;;;;;45.00;24.03;;;-3.80;99.90;;;;;;5058499;28;20283;-86
2022/12/13 05:30:00;;;;;;;48.90;23.00;;;-3.90;99.90;;;;;;5059597;28;20193;-86
2022/12/13 05:32:26;;;;;;;37.67;19.13;;;-3.80;99.90;;;;;;5059510;28;20203;-87
2022/12/13 05:34:51;;;;;;;47.70;21.17;;;-3.90;99.90;;;;;;5058250;28;20186;-87
2022/12/13 05:37:17;;;;;;;54.23;22.63;;;-3.90;99.90;;;;;;5058483;28;20631;-87
2022/12/13 05:39:42;;;;;;;52.97;24.37;;;-3.80;99.90;;;;;;5061633;28;20182;-87
2022/12/13 05:42:08;;;;;;;45.40;23.00;;;-3.90;99.90;;;;;;5066287;28;20189;-87
2022/12/13 05:44:34;;;;;;;47.53;24.20;;;-3.90;99.90;;;;;;5068754;28;20234;-86
2022/12/13 05:46:59;;;;;;;41.93;21.10;;;-3.90;99.90;;;;;;5069611;28;20191;-84
2022/12/13 05:49:25;;;;;;;47.30;20.87;;;-3.80;99.90;;;;;;5065119;28;20212;-87
2022/12/13 05:51:51;;;;;;;43.63;20.93;;;-3.80;99.90;;;;;;5060541;28;20589;-87
2022/12/13 05:54:16;;;;;;;43.50;22.70;;;-3.80;99.90;;;;;;5042045;28;20539;-87
2022/12/13 05:56:42;;;;;;;43.77;23.53;;;-3.70;99.90;;;;;;5057454;28;20642;-87
2022/12/13 05:59:07;;;;;;;44.73;23.40;;;-3.70;99.90;;;;;;5040742;28;20190;-87
2022/12/13 06:01:33;;;;;;;44.90;21.97;;;-3.70;99.90;;;;;;5060313;28;20569;-87
2022/12/13 06:03:58;;;;;;;51.13;24.50;;;-3.80;99.90;;;;;;5058447;28;20265;-86
2022/12/13 06:06:24;;;;;;;47.00;24.37;;;-3.80;99.90;;;;;;5058418;28;20174;-87
2022/12/13 06:08:50;;;;;;;54.27;24.03;;;-3.80;99.90;;;;;;5058384;28;20731;-87
2022/12/13 06:11:15;;;;;;;43.70;23.17;;;-3.90;99.90;;;;;;5058125;28;20175;-86
2022/12/13 06:13:48;;;;;;;44.83;21.67;;;-3.90;99.90;;;;;;5058206;28;20190;-87
2022/12/13 06:16:14;;;;;;;46.50;19.80;;;-3.90;99.90;;;;;;5058071;28;20188;-87
2022/12/13 06:18:39;;;;;;;45.00;21.87;;;-4.00;99.90;;;;;;5056880;28;20183;-86
2022/12/13 06:21:06;;;;;;;40.67;20.53;;;-4.10;99.90;;;;;;5058112;28;20658;-86
2022/12/13 06:23:33;;;;;;;35.78;19.45;;;-4.10;99.90;;;;;;5057197;28;20185;-87
2022/12/13 06:26:02;;;;;;;39.97;19.60;;;-4.10;99.90;;;;;;5058369;28;20226;-87
2022/12/13 06:28:27;;;;;;;38.35;19.50;;;-4.20;99.90;;;;;;5057464;28;20206;-88
2022/12/13 06:30:53;;;;;;;38.60;19.73;;;-4.20;99.90;;;;;;5058006;28;20185;-87
2022/12/13 06:33:19;;;;;;;38.20;20.20;;;-4.20;99.90;;;;;;5057908;28;20188;-88
2022/12/13 06:35:45;;;;;;;36.75;19.58;;;-4.30;99.90;;;;;;5056789;28;20639;-87
2022/12/13 06:38:12;;;;;;;38.83;18.88;;;-4.30;99.90;;;;;;5057411;28;20218;-87
2022/12/13 06:40:38;;;;;;;36.65;19.90;;;-4.40;99.90;;;;;;5058093;28;20201;-87
2022/12/13 06:43:04;;;;;;;36.17;19.23;;;-4.40;99.90;;;;;;5056504;28;20203;-86
2022/12/13 06:45:30;;;;;;;34.37;18.33;;;-4.40;99.90;;;;;;5060109;28;20180;-87
2022/12/13 06:47:56;;;;;;;36.47;18.57;;;-4.50;99.90;;;;;;5056746;28;20472;-87
2022/12/13 06:50:22;;;;;;;32.22;18.13;;;-4.50;99.90;;;;;;5057078;28;20414;-87
2022/12/13 06:52:48;;;;;;;35.95;18.13;;;-4.50;99.90;;;;;;5058007;28;20187;-86
2022/12/13 06:55:14;;;;;;;32.10;17.70;;;-4.50;99.90;;;;;;5057739;28;20174;-85
2022/12/13 06:57:40;;;;;;;35.03;17.07;;;-4.60;99.90;;;;;;5057622;28;20181;-86
2022/12/13 07:00:07;;;;;;;37.67;17.75;;;-4.60;99.90;;;;;;5057073;28;20462;-87
2022/12/13 07:02:32;;;;;;;27.02;15.73;;;-4.60;99.90;;;;;;5056871;28;20232;-87
2022/12/13 07:04:58;;;;;;;32.70;17.63;;;-4.60;99.90;;;;;;5056382;28;20175;-87
2022/12/13 07:07:25;;;;;;;29.77;16.30;;;-4.60;99.90;;;;;;5055828;28;20233;-87
2022/12/13 07:09:51;;;;;;;31.80;15.80;;;-4.60;99.90;;;;;;5057264;28;20243;-87
2022/12/13 07:12:18;;;;;;;34.45;16.80;;;-4.60;99.90;;;;;;5055301;28;20641;-86
2022/12/13 07:14:43;;;;;;;26.05;16.63;;;-4.60;99.90;;;;;;5055784;28;20177;-86
2022/12/13 07:17:09;;;;;;;31.67;16.60;;;-4.70;99.90;;;;;;5057090;28;20235;-86
2022/12/13 07:19:35;;;;;;;33.05;17.55;;;-4.70;99.90;;;;;;5055318;28;20263;-85
2022/12/13 07:22:00;;;;;;;32.97;17.60;;;-4.70;99.90;;;;;;5055513;28;20655;-86
2022/12/13 07:24:26;;;;;;;30.43;15.40;;;-4.70;99.90;;;;;;5058830;28;20268;-86
2022/12/13 07:26:52;;;;;;;33.07;17.23;;;-4.70;99.90;;;;;;5039291;28;20189;-84
2022/12/13 07:29:17;;;;;;;29.00;15.87;;;-4.70;99.90;;;;;;5056147;28;20616;-88
2022/12/13 07:31:43;;;;;;;28.17;15.20;;;-4.70;99.90;;;;;;5038676;28;20185;-87
2022/12/13 07:34:08;;;;;;;26.23;15.70;;;-4.70;99.90;;;;;;5057018;28;20723;-87
2022/12/13 07:36:34;;;;;;;31.47;16.83;;;-4.70;99.90;;;;;;5056135;28;20181;-86
2022/12/13 07:38:59;;;;;;;29.90;16.73;;;-4.80;99.90;;;;;;5056575;28;20639;-87
2022/12/13 07:41:26;;;;;;;35.00;17.87;;;-4.80;99.90;;;;;;5056257;28;20538;-87
2022/12/13 07:43:52;;;;;;;25.83;15.50;;;-4.80;99.90;;;;;;5058403;28;20266;-85
2022/12/13 07:46:18;;;;;;;26.77;15.60;;;-4.90;99.90;;;;;;5057469;28;20184;-85
2022/12/13 07:48:43;;;;;;;35.23;17.03;;;-4.80;99.90;;;;;;5056714;28;20202;-85
2022/12/13 07:51:10;;;;;;;30.37;16.83;;;-4.80;99.90;;;;;;5057263;28;20182;-85
2022/12/13 07:53:36;;;;;;;28.75;15.00;;;-4.80;99.90;;;;;;5058274;28;20189;-86
2022/12/13 07:56:04;;;;;;;32.77;16.97;;;-4.80;99.90;;;;;;5055924;28;20178;-87
2022/12/13 07:58:32;;;;;;;33.65;16.67;;;-4.80;99.90;;;;;;5056432;28;20417;-87
2022/12/13 08:01:08;;;;;;;29.05;17.60;;;-4.80;99.90;;;;;;5055242;28;20178;-85
2022/12/13 08:03:35;;;;;;;24.08;13.45;;;-4.80;99.90;;;;;;5056491;28;20187;-88
2022/12/13 08:06:06;;;;;;;33.42;18.60;;;-4.80;99.90;;;;;;5056517;28;20174;-85
2022/12/13 08:08:33;;;;;;;30.70;16.98;;;-4.80;99.90;;;;;;5056530;28;20233;-84
2022/12/13 08:11:25;;;;;;;32.88;17.88;;;-4.80;99.90;;;;;;5059389;28;20177;-85
2022/12/13 08:13:53;;;;;;;26.55;15.00;;;-4.80;99.90;;;;;;5036176;28;20200;-86
2022/12/13 08:16:18;;;;;;;32.65;15.57;;;-4.80;99.90;;;;;;5056909;28;20173;-85
2022/12/13 08:18:46;;;;;;;32.60;16.43;;;-4.80;99.90;;;;;;5056797;28;20193;-84
2022/12/13 08:21:12;;;;;;;33.22;15.70;;;-4.70;99.90;;;;;;5056907;28;20181;-84
2022/12/13 08:23:38;;;;;;;31.98;16.88;;;-4.70;99.90;;;;;;5039475;28;20193;-84
2022/12/13 08:26:05;;;;;;;31.73;17.73;;;-4.60;99.90;;;;;;5055598;28;20178;-84
2022/12/13 08:28:32;;;;;;;30.38;16.38;;;-4.60;99.90;;;;;;5056263;28;20514;-84
2022/12/13 08:31:13;;;;;;;36.53;18.75;;;-4.60;99.90;;;;;;5057262;28;20182;-85
2022/12/13 08:33:39;;;;;;;34.60;16.80;;;-4.50;99.90;;;;;;5056555;28;20186;-84
2022/12/13 08:36:14;;;;;;;36.33;17.23;;;-4.50;99.90;;;;;;5057290;28;20178;-84
2022/12/13 08:38:40;;;;;;;33.30;18.05;;;-4.40;99.90;;;;;;5056577;28;20197;-85
2022/12/13 08:41:07;;;;;;;36.15;17.52;;;-4.40;99.90;;;;;;5057587;28;20181;-84
2022/12/13 08:43:33;;;;;;;33.42;18.67;;;-4.30;99.90;;;;;;5056749;28;20174;-85
2022/12/13 08:45:59;;;;;;;34.15;17.42;;;-4.20;99.90;;;;;;5022360;28;20554;-85
2022/12/13 08:48:25;;;;;;;35.75;18.77;;;-4.20;99.90;;;;;;5058623;28;20219;-84
2022/12/13 08:50:51;;;;;;;28.63;16.90;;;-4.10;99.90;;;;;;5062205;28;20174;-84
2022/12/13 08:53:16;;;;;;;29.83;16.90;;;-4.10;99.90;;;;;;5043894;28;20215;-85
2022/12/13 08:55:42;;;;;;;33.97;16.60;;;-4.00;99.90;;;;;;5059541;28;20221;-85
2022/12/13 08:58:08;;;;;;;29.50;17.40;;;-4.00;99.90;;;;;;5059938;28;20253;-86
2022/12/13 09:00:34;;;;;;;33.30;17.40;;;-3.90;99.90;;;;;;5043132;28;20234;-85
2022/12/13 09:03:02;;;;;;;35.08;17.25;;;-3.90;99.90;;;;;;5059250;28;20335;-85
2022/12/13 09:05:28;;;;;;;32.63;17.08;;;-3.80;99.90;;;;;;5060190;28;20227;-85
2022/12/13 09:07:55;;;;;;;32.40;17.77;;;-3.80;99.90;;;;;;5041963;28;20292;-85
2022/12/13 09:10:21;;;;;;;30.42;16.80;;;-3.70;99.90;;;;;;5059282;28;20207;-85
2022/12/13 09:12:46;;;;;;;27.30;15.57;;;-3.70;99.90;;;;;;5060851;28;20570;-85
2022/12/13 09:15:12;;;;;;;32.90;18.43;;;-3.60;99.90;;;;;;5060809;28;20916;-84
2022/12/13 09:17:38;;;;;;;34.00;17.63;;;-3.50;99.90;;;;;;5059939;28;20187;-85
2022/12/13 09:20:10;;;;;;;32.87;18.70;;;-3.50;99.90;;;;;;5061042;28;20186;-85
2022/12/13 09:22:36;;;;;;;29.48;15.82;;;-3.50;99.90;;;;;;5043351;28;20423;-85
2022/12/13 09:25:03;;;;;;;33.83;17.77;;;-3.40;99.90;;;;;;5043617;28;20173;-85
2022/12/13 09:27:30;;;;;;;31.45;16.40;;;-3.30;99.90;;;;;;5060179;28;20185;-85
2022/12/13 09:29:56;;;;;;;36.03;18.20;;;-3.30;99.90;;;;;;5059908;28;20174;-85
2022/12/13 09:32:22;;;;;;;32.95;17.60;;;-3.20;99.90;;;;;;5041761;28;20192;-85
2022/12/13 09:34:47;;;;;;;34.07;16.70;;;-3.20;99.90;;;;;;5058720;28;20231;-85
2022/12/13 09:37:13;;;;;;;29.70;16.23;;;-3.10;99.90;;;;;;5059138;28;20485;-85
2022/12/13 09:39:38;;;;;;;31.10;17.47;;;-3.00;99.90;;;;;;5058905;28;20177;-85
2022/12/13 09:42:09;;;;;;;31.33;18.10;;;-2.90;99.90;;;;;;5058758;28;20276;-85
2022/12/13 09:44:40;;;;;;;32.97;16.88;;;-2.80;99.90;;;;;;5059530;28;20500;-86
2022/12/13 09:47:12;;;;;;;34.67;16.85;;;-2.70;99.90;;;;;;5057948;28;20178;-86
2022/12/13 09:49:43;;;;;;;26.63;15.32;;;-2.50;99.90;;;;;;5059072;28;20214;-85
2022/12/13 09:52:13;;;;;;;35.15;17.83;;;-2.40;99.90;;;;;;5059261;28;20169;-85
2022/12/13 09:54:40;;;;;;;32.88;18.23;;;-2.40;99.90;;;;;;5057900;28;20172;-85
2022/12/13 09:57:23;;;;;;;38.15;18.63;;;-2.30;99.90;;;;;;5057915;28;20515;-85
2022/12/13 09:59:49;;;;;;;31.60;17.17;;;-2.10;99.90;;;;;;5059097;28;20162;-85
2022/12/13 10:02:20;;;;;;;33.87;17.63;;;-1.80;99.90;;;;;;5057754;28;20192;-84
2022/12/13 10:04:46;;;;;;;36.20;18.30;;;-1.60;99.90;;;;;;5058863;28;20396;-85
2022/12/13 10:07:19;;;;;;;38.33;19.73;;;-1.60;99.90;;;;;;5041781;28;20174;-85
2022/12/13 10:09:45;;;;;;;38.35;21.27;;;-1.40;99.90;;;;;;5057546;28;20543;-85
2022/12/13 10:12:14;;;;;;;38.58;18.35;;;-1.20;99.90;;;;;;5057493;28;20178;-85
2022/12/13 10:14:43;;;;;;;33.75;19.05;;;-0.90;99.90;;;;;;5058497;28;20576;-85
2022/12/13 10:17:14;;;;;;;31.35;17.38;;;-0.70;99.90;;;;;;5058715;28;20173;-84
2022/12/13 10:19:43;;;;;;;25.50;14.68;;;-0.70;99.90;;;;;;5062228;28;20513;-85
2022/12/13 10:22:17;;;;;;;24.33;16.17;;;-0.50;99.90;;;;;;5057200;28;20266;-86
2022/12/13 10:24:47;;;;;;;24.02;14.45;;;-0.30;99.90;;;;;;5057986;28;20189;-86
2022/12/13 10:27:16;;;;;;;28.17;15.98;;;-0.30;99.90;;;;;;5057305;28;20212;-86
2022/12/13 10:30:01;;;;;;;30.83;16.25;;;-0.10;99.90;;;;;;5056998;28;20258;-85
2022/12/13 10:32:27;;;;;;;27.25;15.93;;;0.10;99.90;;;;;;5056720;28;20188;-86
2022/12/13 10:34:56;;;;;;;28.57;14.97;;;0.20;99.90;;;;;;5040829;28;20178;-87
2022/12/13 10:37:30;;;;;;;24.50;15.13;;;0.20;99.90;;;;;;5055594;28;20435;-86
2022/12/13 10:39:57;;;;;;;31.60;16.35;;;0.10;99.90;;;;;;5057666;28;20169;-86
2022/12/13 10:42:23;;;;;;;27.52;14.75;;;0.20;99.90;;;;;;5057449;28;20555;-86
2022/12/13 10:45:06;;;;;;;26.35;15.40;;;0.20;99.90;;;;;;5057978;28;20214;-86
2022/12/13 10:47:32;;;;;;;29.52;15.95;;;0.40;99.90;;;;;;5058620;28;20222;-86
2022/12/13 10:50:00;;;;;;;22.73;14.50;;;0.40;99.90;;;;;;5056287;28;20182;-86
2022/12/13 10:52:38;;;;;;;25.77;14.70;;;0.50;99.90;;;;;;5057737;28;20177;-86
2022/12/13 10:55:10;;;;;;;25.25;14.23;;;0.70;99.90;;;;;;5057009;28;20181;-86
2022/12/13 10:57:36;;;;;;;23.38;13.20;;;0.70;99.90;;;;;;5058694;28;20180;-85
2022/12/13 11:00:02;;;;;;;29.20;14.77;;;1.00;99.90;;;;;;5056765;28;20169;-85
2022/12/13 11:02:31;;;;;;;25.92;14.63;;;1.40;99.90;;;;;;5056929;28;20416;-86
2022/12/13 11:04:58;;;;;;;23.55;14.63;;;1.70;99.90;;;;;;5055643;28;20181;-86
2022/12/13 11:07:31;;;;;;;25.67;14.80;;;1.70;99.90;;;;;;5056566;28;20278;-86
2022/12/13 11:10:15;;;;;;;22.85;13.65;;;1.90;99.90;;;;;;5055535;28;20227;-86
2022/12/13 11:12:41;;;;;;;23.92;13.52;;;2.20;99.90;;;;;;5055724;28;20162;-86
2022/12/13 11:15:14;;;;;;;23.92;15.57;;;1.90;99.90;;;;;;5038808;28;20204;-86
2022/12/13 11:17:48;;;;;;;19.77;12.68;;;2.10;99.90;;;;;;5056741;28;20171;-85
2022/12/13 11:20:21;;;;;;;19.02;12.13;;;2.00;99.90;;;;;;5055307;28;20235;-86
2022/12/13 11:22:49;;;;;;;20.92;13.20;;;1.40;99.90;;;;;;5055733;28;20162;-86
2022/12/13 11:25:24;;;;;;;22.92;13.00;;;1.20;99.90;;;;;;5055557;28;20186;-86
2022/12/13 11:27:52;;;;;;;21.13;12.38;;;1.40;99.90;;;;;;5055494;28;20741;-86
2022/12/13 11:30:29;;;;;;;19.60;12.02;;;1.50;99.90;;;;;;5055214;28;20189;-85
2022/12/13 11:33:13;;;;;;;23.27;12.05;;;1.60;99.90;;;;;;5056599;28;20196;-85
2022/12/13 11:35:41;;;;;;;21.70;14.25;;;1.60;99.90;;;;;;5055322;28;20241;-86
2022/12/13 11:38:30;;;;;;;20.75;12.38;;;1.90;99.90;;;;;;5058176;28;20200;-85
2022/12/13 11:41:02;;;;;;;19.08;10.93;;;1.80;99.90;;;;;;5056882;28;20622;-85
2022/12/13 11:43:36;;;;;;;17.55;10.73;;;2.00;99.90;;;;;;5055765;28;20170;-86
2022/12/13 11:46:24;;;;;;;21.63;11.60;;;1.80;99.90;;;;;;5056685;28;20512;-86
2022/12/13 11:48:55;;;;;;;22.25;12.55;;;1.70;99.90;;;;;;5052224;28;20214;-86
2022/12/13 11:51:30;;;;;;;15.02;9.30;;;1.80;99.90;;;;;;5055426;28;20192;-85
2022/12/13 11:54:27;;;;;;;15.95;9.75;;;1.90;99.90;;;;;;5056305;28;20185;-85
2022/12/13 11:56:57;;;;;;;17.30;9.80;;;1.90;99.90;;;;;;5056740;28;20180;-85
2022/12/13 11:59:52;;;;;;;16.90;10.73;;;2.30;99.90;;;;;;5058232;28;20181;-86
2022/12/13 12:02:34;;;;;;;20.85;11.52;;;2.50;99.90;;;;;;5056698;28;20571;-86
2022/12/13 12:05:22;;;;;;;16.60;11.05;;;3.00;99.90;;;;;;5053524;28;20169;-85
2022/12/13 12:07:53;;;;;;;19.08;11.07;;;3.00;99.90;;;;;;5051308;28;20295;-83
2022/12/13 12:10:31;;;;;;;20.42;12.57;;;2.90;99.90;;;;;;5049031;28;20184;-84
2022/12/13 12:13:27;;;;;;;16.80;10.13;;;3.30;99.90;;;;;;5050937;28;20181;-84
2022/12/13 12:16:32;;;;;;;18.25;10.75;;;3.20;99.90;;;;;;5050026;28;20583;-85
2022/12/13 12:18:59;;;;;;;16.33;11.40;;;3.10;99.90;;;;;;5026514;28;20207;-85
2022/12/13 12:21:40;;;;;;;18.73;10.88;;;3.00;99.90;;;;;;5055531;28;20604;-85
2022/12/13 12:24:18;;;;;;;18.83;11.50;;;2.80;99.90;;;;;;5056816;28;20170;-86
2022/12/13 12:26:50;;;;;;;19.33;11.30;;;2.70;99.90;;;;;;5058093;28;20201;-86
2022/12/13 12:29:49;;;;;;;20.55;11.25;;;2.80;99.90;;;;;;5058033;28;20215;-87
2022/12/13 12:32:48;;;;;;;18.60;11.55;;;2.70;99.90;;;;;;5058548;28;20263;-87
2022/12/13 12:35:49;;;;;;;20.30;12.40;;;2.30;99.90;;;;;;5058120;28;20625;-87
2022/12/13 12:38:18;;;;;;;14.00;9.85;;;2.00;99.90;;;;;;5058223;28;20286;-86
2022/12/13 12:41:17;;;;;;;19.75;10.13;;;1.90;99.90;;;;;;5058990;28;20228;-86
2022/12/13 12:43:45;;;;;;;18.60;11.05;;;1.80;99.90;;;;;;5057899;28;20238;-86
2022/12/13 12:46:33;;;;;;;17.77;10.18;;;1.70;99.90;;;;;;5058413;28;20625;-86